Time;durP1;ratioP1;P1;durP2;ratioP2;P2;SDS_P1;SDS_P2;PMS_P1;PMS_P2;Temp;Humidity;BMP_temperature;BMP_pressure;BME280_temperature;BME280_humidity;BME280_pressure;Samples;Min_cycle;Max_cycle;Signal;HPM_P1;HPM_P2
2022/10/25 00:03:03;;;;;;;34.03;12.27;;;19.00;99.90;;;;;;5054296;28;20083;-67
2022/10/25 00:06:11;;;;;;;23.33;12.13;;;18.90;99.90;;;;;;5053994;28;20048;-67
2022/10/25 00:09:15;;;;;;;26.83;12.15;;;19.00;99.90;;;;;;5054435;28;20044;-67
2022/10/25 00:12:19;;;;;;;36.90;12.07;;;18.90;99.90;;;;;;5054143;28;20498;-66
2022/10/25 00:15:23;;;;;;;28.00;11.65;;;19.00;99.90;;;;;;5053965;28;20039;-67
2022/10/25 00:18:28;;;;;;;25.15;11.85;;;19.00;99.90;;;;;;5053999;28;20498;-67
2022/10/25 00:21:32;;;;;;;32.08;13.38;;;18.90;99.90;;;;;;5054207;28;20083;-68
2022/10/25 00:24:36;;;;;;;32.13;13.40;;;18.90;99.90;;;;;;5053625;28;20491;-68
2022/10/25 00:27:39;;;;;;;26.60;12.45;;;18.90;99.90;;;;;;5053840;28;20044;-67
2022/10/25 00:30:43;;;;;;;30.85;12.90;;;18.90;99.90;;;;;;5041423;28;20040;-68
2022/10/25 00:33:48;;;;;;;29.60;12.38;;;18.90;99.90;;;;;;5053576;28;20047;-67
2022/10/25 00:36:51;;;;;;;23.10;11.32;;;19.00;99.90;;;;;;5053879;28;20040;-67
2022/10/25 00:39:55;;;;;;;28.27;11.63;;;19.00;99.90;;;;;;5053685;28;20052;-67
2022/10/25 00:42:59;;;;;;;28.65;11.75;;;19.00;99.90;;;;;;5053771;28;20044;-67
2022/10/25 00:46:29;;;;;;;30.20;12.50;;;19.00;99.90;;;;;;5052541;28;20056;-67
2022/10/25 00:49:33;;;;;;;29.58;11.95;;;19.00;99.90;;;;;;5055202;28;20496;-67
2022/10/25 00:52:43;;;;;;;25.98;12.05;;;19.00;99.90;;;;;;5053683;28;20044;-67
2022/10/25 00:55:57;;;;;;;27.27;10.88;;;19.00;99.90;;;;;;5053656;28;20040;-67
2022/10/25 00:59:05;;;;;;;31.50;12.65;;;19.00;99.90;;;;;;5053246;28;20391;-67
2022/10/25 01:02:10;;;;;;;27.27;11.63;;;19.10;99.90;;;;;;5053124;28;20053;-67
2022/10/25 01:05:16;;;;;;;29.02;11.57;;;19.10;99.90;;;;;;5052718;28;20044;-67
2022/10/25 01:08:20;;;;;;;22.38;10.50;;;19.20;99.90;;;;;;5053307;28;20502;-67
2022/10/25 01:11:24;;;;;;;21.48;11.43;;;19.20;99.90;;;;;;5053553;28;20048;-67
2022/10/25 01:14:31;;;;;;;27.40;11.68;;;19.20;99.90;;;;;;5052736;28;20056;-67
2022/10/25 01:17:35;;;;;;;28.73;12.55;;;19.20;99.90;;;;;;5052829;28;20051;-67
2022/10/25 01:21:21;;;;;;;23.95;10.75;;;19.20;99.90;;;;;;5052998;28;20072;-66
2022/10/25 01:24:46;;;;;;;25.73;11.13;;;19.20;99.90;;;;;;5052467;28;20048;-67
2022/10/25 01:27:50;;;;;;;23.33;11.63;;;19.10;99.90;;;;;;5052837;28;20063;-66
2022/10/25 01:31:25;;;;;;;23.30;11.10;;;19.10;99.90;;;;;;5052885;28;20051;-67
2022/10/25 01:34:38;;;;;;;25.27;11.77;;;19.00;99.90;;;;;;5052457;28;20040;-67
2022/10/25 01:38:10;;;;;;;26.02;11.65;;;18.90;99.90;;;;;;5052362;28;20040;-67
2022/10/25 01:41:21;;;;;;;29.13;12.13;;;18.80;99.90;;;;;;5040241;28;20526;-67
2022/10/25 01:44:43;;;;;;;36.85;12.27;;;18.80;99.90;;;;;;5052095;28;20047;-67
2022/10/25 01:47:58;;;;;;;26.42;12.23;;;18.70;99.90;;;;;;5052399;28;20040;-66
2022/10/25 01:51:10;;;;;;;24.85;11.38;;;18.60;99.90;;;;;;5052587;28;20032;-67
2022/10/25 01:54:20;;;;;;;21.65;11.10;;;18.70;99.90;;;;;;5050843;28;20096;-67
2022/10/25 01:57:39;;;;;;;31.90;12.85;;;18.60;99.90;;;;;;5052236;28;20048;-67
2022/10/25 02:01:13;;;;;;;26.88;12.88;;;18.60;99.90;;;;;;5052008;28;20036;-67
2022/10/25 02:04:30;;;;;;;30.42;12.32;;;18.60;99.90;;;;;;5051713;28;20395;-67
2022/10/25 02:07:42;;;;;;;28.65;12.98;;;18.50;99.90;;;;;;5051909;28;20040;-67
2022/10/25 02:10:56;;;;;;;27.75;13.30;;;18.30;99.90;;;;;;5052211;28;20048;-67
2022/10/25 02:14:25;;;;;;;28.40;12.95;;;18.10;99.90;;;;;;5051652;28;20052;-67
2022/10/25 02:17:32;;;;;;;23.90;13.77;;;18.10;99.90;;;;;;5051931;28;20343;-66
2022/10/25 02:20:38;;;;;;;30.92;14.02;;;18.10;99.90;;;;;;5052295;28;20052;-67
2022/10/25 02:23:44;;;;;;;32.22;14.25;;;18.00;99.90;;;;;;5051396;28;20044;-67
2022/10/25 02:26:49;;;;;;;32.58;13.15;;;18.10;99.90;;;;;;5051392;28;20048;-67
2022/10/25 02:29:54;;;;;;;32.95;13.32;;;18.20;99.90;;;;;;5051390;28;20056;-67
2022/10/25 02:32:58;;;;;;;27.85;12.43;;;18.50;99.90;;;;;;5051796;28;20048;-67
2022/10/25 02:36:20;;;;;;;31.30;12.63;;;18.40;99.90;;;;;;5051266;28;20478;-68
2022/10/25 02:39:26;;;;;;;;;;;18.50;99.90;;;;;;5052192;28;20040;-67
2022/10/25 02:42:29;;;;;;;26.95;11.57;;;18.70;99.90;;;;;;5051216;28;19914;-68
2022/10/25 02:45:33;;;;;;;30.73;13.13;;;18.70;99.90;;;;;;5051074;28;20064;-67
2022/10/25 02:48:37;;;;;;;23.85;11.77;;;18.70;99.90;;;;;;5051172;28;20487;-67
2022/10/25 02:51:41;;;;;;;35.95;12.57;;;18.70;99.90;;;;;;5051518;28;20036;-67
2022/10/25 02:54:45;;;;;;;27.08;12.95;;;18.60;99.90;;;;;;5050608;28;20051;-68
2022/10/25 02:57:49;;;;;;;28.52;12.27;;;18.60;99.90;;;;;;5051462;28;20052;-67
2022/10/25 03:00:53;;;;;;;28.30;12.88;;;18.70;99.90;;;;;;5051062;28;20048;-67
2022/10/25 03:03:57;;;;;;;31.88;12.73;;;18.60;99.90;;;;;;5050967;28;20044;-67
2022/10/25 03:07:01;;;;;;;30.30;11.95;;;18.50;99.90;;;;;;5051142;28;20073;-67
2022/10/25 03:10:06;;;;;;;23.65;12.30;;;18.50;99.90;;;;;;5050670;28;20048;-67
2022/10/25 03:13:11;;;;;;;31.88;13.05;;;18.50;99.90;;;;;;5051236;28;20064;-67
2022/10/25 03:16:15;;;;;;;24.45;13.00;;;18.50;99.90;;;;;;5051234;28;20049;-68
2022/10/25 03:19:19;;;;;;;27.38;12.90;;;18.50;99.90;;;;;;5040737;28;20040;-68
2022/10/25 03:22:22;;;;;;;29.45;12.30;;;18.50;99.90;;;;;;5051376;28;20044;-69
2022/10/25 03:25:27;;;;;;;29.58;12.50;;;18.40;99.90;;;;;;5050739;28;20151;-67
2022/10/25 03:28:31;;;;;;;28.73;12.07;;;18.40;99.90;;;;;;5050942;28;20044;-67
2022/10/25 03:31:35;;;;;;;33.28;12.68;;;18.40;99.90;;;;;;5051137;28;20040;-68
2022/10/25 03:34:38;;;;;;;28.42;11.23;;;18.50;99.90;;;;;;5050511;28;20048;-67
2022/10/25 03:37:42;;;;;;;28.85;12.57;;;18.50;99.90;;;;;;5051188;28;20044;-67
2022/10/25 03:40:47;;;;;;;32.92;12.85;;;18.50;99.90;;;;;;5050927;28;20072;-67
2022/10/25 03:43:50;;;;;;;23.92;11.60;;;18.50;99.90;;;;;;5050268;28;20403;-67
2022/10/25 03:46:54;;;;;;;28.65;12.57;;;18.50;99.90;;;;;;5050531;28;20506;-67
2022/10/25 03:49:58;;;;;;;21.65;11.82;;;18.60;99.90;;;;;;5051000;28;20391;-67
2022/10/25 03:53:03;;;;;;;29.58;12.65;;;18.60;99.90;;;;;;5050480;28;20043;-67
2022/10/25 03:56:07;;;;;;;30.90;14.18;;;18.60;99.90;;;;;;5050674;28;20041;-68
2022/10/25 03:59:11;;;;;;;34.88;14.90;;;18.20;99.90;;;;;;5050651;28;20502;-67
2022/10/25 04:02:15;;;;;;;29.77;15.20;;;18.10;99.90;;;;;;5051057;28;20071;-67
2022/10/25 04:05:19;;;;;;;32.20;15.35;;;18.00;99.90;;;;;;5050677;28;20438;-67
2022/10/25 04:08:23;;;;;;;31.15;16.27;;;17.80;99.90;;;;;;5050740;28;20044;-68
2022/10/25 04:11:26;;;;;;;35.03;17.80;;;17.80;99.90;;;;;;5050878;28;20577;-67
2022/10/25 04:14:31;;;;;;;31.13;16.83;;;17.60;99.90;;;;;;5050526;28;20044;-67
2022/10/25 04:17:34;;;;;;;32.60;18.42;;;17.50;99.90;;;;;;5050739;28;20047;-67
2022/10/25 04:20:38;;;;;;;28.60;16.40;;;17.30;99.90;;;;;;5050612;28;20044;-67
2022/10/25 04:23:42;;;;;;;27.42;17.42;;;17.30;99.90;;;;;;5054068;28;20060;-67
2022/10/25 04:26:46;;;;;;;31.40;16.23;;;17.30;99.90;;;;;;5054161;28;20399;-68
2022/10/25 04:29:50;;;;;;;37.67;18.27;;;17.30;99.90;;;;;;5054101;28;20063;-67
2022/10/25 04:32:57;;;;;;;28.38;17.27;;;17.40;99.90;;;;;;5054096;28;20071;-67
2022/10/25 04:36:01;;;;;;;34.28;16.08;;;17.40;99.90;;;;;;5054117;28;20048;-67
2022/10/25 04:39:05;;;;;;;32.20;16.17;;;17.40;99.90;;;;;;5053960;28;20341;-67
2022/10/25 04:42:08;;;;;;;28.00;16.17;;;17.50;99.90;;;;;;5054038;28;20483;-67
2022/10/25 04:45:12;;;;;;;30.25;15.05;;;17.60;99.90;;;;;;5053399;28;20447;-67
2022/10/25 04:48:17;;;;;;;29.50;16.48;;;17.60;99.90;;;;;;5053787;28;20407;-68
2022/10/25 04:51:21;;;;;;;33.05;16.05;;;17.50;99.90;;;;;;5053770;28;20044;-67
2022/10/25 04:54:25;;;;;;;31.58;15.30;;;17.50;99.90;;;;;;5053629;28;20052;-67
2022/10/25 04:57:29;;;;;;;29.63;16.13;;;17.70;99.90;;;;;;5041166;28;20044;-67
2022/10/25 05:00:33;;;;;;;31.05;16.52;;;17.70;99.90;;;;;;5053580;28;20059;-67
2022/10/25 05:03:37;;;;;;;35.75;17.15;;;17.70;99.90;;;;;;5053218;28;20491;-68
2022/10/25 05:06:41;;;;;;;26.63;15.90;;;17.70;99.90;;;;;;5053722;28;20395;-67
2022/10/25 05:09:45;;;;;;;35.10;15.65;;;17.60;99.90;;;;;;5053249;28;20048;-67
2022/10/25 05:12:49;;;;;;;33.80;14.98;;;17.60;99.90;;;;;;5053878;28;20375;-67
2022/10/25 05:15:57;;;;;;;32.15;14.77;;;17.80;99.90;;;;;;5053520;28;20040;-67
2022/10/25 05:19:01;;;;;;;35.35;13.45;;;18.00;99.90;;;;;;5053627;28;20044;-67
2022/10/25 05:22:05;;;;;;;25.90;15.52;;;18.10;99.90;;;;;;5053309;28;20071;-67
2022/10/25 05:25:09;;;;;;;42.60;15.57;;;18.10;99.90;;;;;;5052466;28;20040;-67
2022/10/25 05:28:13;;;;;;;29.08;14.85;;;17.90;99.90;;;;;;5052828;28;20044;-67
2022/10/25 05:31:24;;;;;;;35.92;14.52;;;17.90;99.90;;;;;;5052843;28;20553;-67
2022/10/25 05:34:28;;;;;;;40.65;17.25;;;17.90;99.90;;;;;;5052247;28;20044;-67
2022/10/25 05:37:33;;;;;;;33.85;15.73;;;17.90;99.90;;;;;;5052615;28;20055;-67
2022/10/25 05:40:37;;;;;;;33.80;17.05;;;17.80;99.90;;;;;;5052382;28;20509;-67
2022/10/25 05:43:43;;;;;;;44.05;18.50;;;17.70;99.90;;;;;;5051941;28;20044;-67
2022/10/25 05:46:47;;;;;;;31.95;18.00;;;17.60;99.90;;;;;;5052230;28;20399;-67
2022/10/25 05:49:50;;;;;;;27.83;16.45;;;17.60;99.90;;;;;;5052290;28;20108;-67
2022/10/25 05:52:54;;;;;;;34.88;17.73;;;17.50;99.90;;;;;;5052484;28;20067;-67
2022/10/25 05:55:59;;;;;;;33.53;17.42;;;17.60;99.90;;;;;;5052302;28;20174;-67
2022/10/25 05:59:09;;;;;;;32.97;17.65;;;17.60;99.90;;;;;;5052275;28;20056;-67
2022/10/25 06:02:13;;;;;;;29.05;17.20;;;17.60;99.90;;;;;;5052112;28;20112;-67
2022/10/25 06:05:17;;;;;;;49.53;18.40;;;17.60;99.90;;;;;;5043955;28;20064;-67
2022/10/25 06:08:21;;;;;;;27.08;16.30;;;17.60;99.90;;;;;;5047152;28;20040;-67
2022/10/25 06:11:27;;;;;;;38.08;17.75;;;17.70;99.90;;;;;;5051821;28;20040;-67
2022/10/25 06:14:31;;;;;;;42.00;19.75;;;17.80;99.90;;;;;;5031858;28;20048;-68
2022/10/25 06:17:35;;;;;;;30.10;17.02;;;17.50;99.90;;;;;;5032213;28;20515;-67
2022/10/25 06:20:39;;;;;;;41.58;16.50;;;17.50;99.90;;;;;;5035773;28;20048;-67
2022/10/25 06:23:44;;;;;;;35.67;17.00;;;18.00;99.90;;;;;;5051095;28;20495;-67
2022/10/25 06:26:47;;;;;;;34.78;17.30;;;17.50;99.90;;;;;;5042022;28;20044;-67
2022/10/25 06:29:51;;;;;;;33.58;17.70;;;17.50;99.90;;;;;;5045173;28;20041;-67
2022/10/25 06:32:55;;;;;;;29.77;16.48;;;17.60;99.90;;;;;;5044015;28;20424;-67
2022/10/25 06:36:01;;;;;;;34.85;16.38;;;17.60;99.90;;;;;;5046071;28;20048;-67
2022/10/25 06:39:05;;;;;;;28.17;16.27;;;17.80;99.90;;;;;;5048375;28;20051;-67
2022/10/25 06:42:09;;;;;;;29.95;16.98;;;17.80;99.90;;;;;;5049714;28;20052;-67
2022/10/25 06:45:13;;;;;;;34.42;16.75;;;18.00;99.90;;;;;;5048619;28;20044;-67
2022/10/25 06:48:18;;;;;;;31.83;15.70;;;18.00;99.90;;;;;;5035753;28;20048;-67
2022/10/25 06:51:23;;;;;;;29.00;16.02;;;18.20;99.90;;;;;;5045475;28;20036;-67
2022/10/25 06:54:27;;;;;;;32.10;15.40;;;18.30;99.90;;;;;;5045942;28;20043;-67
2022/10/25 06:57:31;;;;;;;34.83;16.00;;;18.40;99.90;;;;;;5045661;28;20052;-67
2022/10/25 07:00:35;;;;;;;28.83;16.33;;;18.40;99.90;;;;;;5033306;28;20041;-67
2022/10/25 07:03:39;;;;;;;26.80;15.10;;;18.60;99.90;;;;;;5041088;28;20052;-67
2022/10/25 07:06:44;;;;;;;25.20;14.98;;;18.70;99.90;;;;;;5031020;28;20040;-67
2022/10/25 07:09:47;;;;;;;27.70;14.70;;;18.70;99.90;;;;;;5030812;28;20060;-67
2022/10/25 07:12:51;;;;;;;35.67;16.75;;;18.90;99.90;;;;;;5050157;28;20428;-67
2022/10/25 07:16:03;;;;;;;32.83;15.25;;;18.70;99.90;;;;;;5045040;28;20052;-66
2022/10/25 07:19:08;;;;;;;33.90;15.07;;;18.80;99.90;;;;;;5031623;28;20040;-67
2022/10/25 07:22:15;;;;;;;30.42;15.07;;;19.00;99.90;;;;;;5034577;28;20045;-65
2022/10/25 07:25:20;;;;;;;32.90;14.85;;;18.90;99.90;;;;;;5025594;28;20060;-67
2022/10/25 07:28:24;;;;;;;27.15;14.70;;;19.10;99.90;;;;;;5027175;28;20036;-67
2022/10/25 07:31:31;;;;;;;31.85;16.33;;;19.00;99.90;;;;;;5017325;28;20040;-67
2022/10/25 07:34:36;;;;;;;29.10;15.13;;;19.00;99.90;;;;;;5050575;28;20421;-67
2022/10/25 07:37:40;;;;;;;34.45;17.30;;;19.00;99.90;;;;;;5031473;28;20052;-68
2022/10/25 07:40:43;;;;;;;34.38;16.17;;;18.70;99.90;;;;;;5035580;28;20059;-67
2022/10/25 07:43:49;;;;;;;34.50;16.48;;;18.60;99.90;;;;;;5050245;28;20049;-67
2022/10/25 07:46:54;;;;;;;30.88;15.60;;;18.50;99.90;;;;;;5031372;28;20064;-67
2022/10/25 07:49:59;;;;;;;30.60;17.17;;;18.80;99.90;;;;;;5031196;28;20044;-67
2022/10/25 07:53:03;;;;;;;32.08;16.85;;;18.80;99.90;;;;;;5048612;28;20040;-67
2022/10/25 07:56:12;;;;;;;28.00;14.93;;;18.80;99.90;;;;;;5047185;28;20044;-67
2022/10/25 07:59:16;;;;;;;28.30;13.88;;;19.50;99.90;;;;;;5054242;28;20059;-67
2022/10/25 08:02:20;;;;;;;23.73;13.52;;;19.60;99.90;;;;;;5048927;28;20124;-67
2022/10/25 08:05:24;;;;;;;24.45;14.13;;;20.00;99.90;;;;;;5035511;28;20051;-68
2022/10/25 08:08:29;;;;;;;25.63;14.02;;;20.00;99.90;;;;;;5027198;28;20053;-67
2022/10/25 08:11:33;;;;;;;26.45;13.27;;;20.40;99.90;;;;;;5041725;28;20041;-67
2022/10/25 08:14:36;;;;;;;27.90;14.80;;;20.50;99.90;;;;;;5048536;28;20040;-67
2022/10/25 08:17:41;;;;;;;30.80;15.57;;;20.40;99.90;;;;;;5034545;28;20072;-67
2022/10/25 08:20:45;;;;;;;25.13;12.93;;;19.90;99.90;;;;;;5051364;28;20049;-68
2022/10/25 08:23:49;;;;;;;20.13;12.43;;;20.30;99.90;;;;;;5047135;28;20053;-67
2022/10/25 08:26:53;;;;;;;24.13;14.40;;;20.80;99.90;;;;;;5034096;28;20053;-67
2022/10/25 08:29:57;;;;;;;29.88;13.07;;;20.90;99.90;;;;;;5051831;28;20056;-67
2022/10/25 08:33:01;;;;;;;34.00;13.35;;;20.70;99.90;;;;;;5049634;28;20040;-67
2022/10/25 08:36:05;;;;;;;33.20;15.70;;;20.40;99.90;;;;;;5048287;28;20058;-67
2022/10/25 08:39:09;;;;;;;28.42;13.90;;;20.30;99.90;;;;;;5039265;28;20056;-67
2022/10/25 08:42:23;;;;;;;32.95;13.90;;;20.30;99.90;;;;;;5036348;28;20094;-68
2022/10/25 08:45:37;;;;;;;27.92;13.60;;;20.50;99.90;;;;;;5049849;28;20039;-67
2022/10/25 08:48:52;;;;;;;24.67;14.43;;;20.70;99.90;;;;;;5050356;28;20059;-67
2022/10/25 08:51:58;;;;;;;30.63;13.90;;;20.80;99.90;;;;;;5048507;28;20039;-67
2022/10/25 08:55:05;;;;;;;32.88;15.27;;;20.70;99.90;;;;;;5046339;28;20506;-68
2022/10/25 08:58:32;;;;;;;28.35;16.90;;;20.60;99.90;;;;;;5050112;28;20480;-68
2022/10/25 09:01:43;;;;;;;37.85;15.93;;;21.10;99.90;;;;;;5050698;28;20036;-67
2022/10/25 09:04:47;;;;;;;32.40;13.48;;;21.40;99.90;;;;;;5044254;28;20052;-67
2022/10/25 09:08:12;;;;;;;33.75;13.25;;;21.90;99.90;;;;;;5049444;28;20067;-67
2022/10/25 09:11:47;;;;;;;27.55;12.52;;;22.20;99.90;;;;;;5053706;28;20045;-67
2022/10/25 09:15:15;;;;;;;30.92;11.77;;;22.30;99.90;;;;;;5051675;28;20047;-67
2022/10/25 09:18:28;;;;;;;29.67;11.45;;;23.20;99.90;;;;;;5042621;28;20043;-66
2022/10/25 09:21:32;;;;;;;27.10;10.80;;;23.60;99.90;;;;;;5040417;28;20064;-67
2022/10/25 09:25:12;;;;;;;29.40;11.20;;;24.60;99.90;;;;;;5043897;28;20396;-67
2022/10/25 09:28:23;;;;;;;23.58;9.93;;;24.80;99.90;;;;;;5040586;28;20060;-67
2022/10/25 09:31:31;;;;;;;30.20;10.63;;;24.80;99.90;;;;;;5048113;28;20048;-68
2022/10/25 09:34:35;;;;;;;22.83;11.45;;;24.00;99.90;;;;;;5050642;28;20044;-68
2022/10/25 09:38:11;;;;;;;28.25;11.32;;;23.20;99.90;;;;;;5045390;28;20040;-68
2022/10/25 09:41:39;;;;;;;29.52;10.27;;;23.70;99.90;;;;;;5052552;28;20491;-68
2022/10/25 09:44:55;;;;;;;27.40;10.13;;;24.20;99.90;;;;;;5046834;28;20036;-66
2022/10/25 09:48:07;;;;;;;31.92;9.73;;;24.50;99.90;;;;;;5050869;28;20510;-68
2022/10/25 09:51:26;;;;;;;27.88;10.13;;;24.20;99.90;;;;;;5042561;28;20045;-66
2022/10/25 09:54:47;;;;;;;30.58;9.30;;;23.80;99.90;;;;;;5044250;28;20048;-67
2022/10/25 09:57:52;;;;;;;27.88;8.93;;;23.60;99.90;;;;;;5050183;28;20040;-67
2022/10/25 10:01:00;;;;;;;21.95;8.45;;;23.20;99.90;;;;;;5045358;28;20052;-67
2022/10/25 10:04:26;;;;;;;20.08;8.27;;;23.50;99.90;;;;;;5044246;28;20507;-67
2022/10/25 10:07:34;;;;;;;32.47;9.77;;;25.50;99.90;;;;;;5031812;28;20040;-68
2022/10/25 10:10:39;;;;;;;31.67;12.73;;;27.90;99.90;;;;;;5043825;28;20550;-67
2022/10/25 10:13:55;;;;;;;29.10;7.93;;;29.40;99.90;;;;;;5044009;28;20048;-67
2022/10/25 10:17:00;;;;;;;30.65;7.88;;;30.50;99.90;;;;;;5048597;28;20044;-68
2022/10/25 10:20:17;;;;;;;25.50;7.10;;;31.10;99.90;;;;;;5049234;28;20499;-65
2022/10/25 10:23:21;;;;;;;22.70;6.63;;;29.80;99.90;;;;;;5045761;28;20073;-67
2022/10/25 10:26:43;;;;;;;16.98;6.50;;;29.90;99.90;;;;;;5044530;28;20055;-68
2022/10/25 10:29:54;;;;;;;16.13;6.72;;;29.90;99.90;;;;;;5042319;28;20040;-69
2022/10/25 10:33:00;;;;;;;23.70;6.70;;;30.70;99.90;;;;;;5047677;28;20051;-67
2022/10/25 10:36:25;;;;;;;21.23;6.88;;;30.60;99.90;;;;;;5043995;28;20044;-68
2022/10/25 10:39:30;;;;;;;25.55;7.72;;;29.30;99.90;;;;;;5045689;28;20384;-67
2022/10/25 10:42:36;;;;;;;25.85;7.72;;;27.90;99.90;;;;;;5046736;28;20048;-68
2022/10/25 10:45:49;;;;;;;24.80;7.85;;;26.20;99.90;;;;;;5047941;28;20056;-68
2022/10/25 10:48:56;;;;;;;32.75;8.60;;;25.20;99.90;;;;;;5039684;28;20040;-68
2022/10/25 10:52:02;;;;;;;31.17;8.13;;;25.20;99.90;;;;;;5045527;28;20048;-67
2022/10/25 10:55:17;;;;;;;24.83;7.30;;;25.30;99.90;;;;;;5041157;28;20507;-69
2022/10/25 10:58:27;;;;;;;27.13;8.93;;;25.90;99.90;;;;;;5048376;28;20090;-67
2022/10/25 11:01:32;;;;;;;26.00;7.82;;;24.20;99.90;;;;;;5043883;28;20048;-68
2022/10/25 11:04:49;;;;;;;25.15;10.00;;;23.70;99.90;;;;;;5041876;28;20128;-68
2022/10/25 11:07:56;;;;;;;23.80;9.07;;;23.10;99.90;;;;;;5048877;28;20507;-68
2022/10/25 11:11:15;;;;;;;35.35;8.75;;;23.60;99.90;;;;;;5046131;28;20396;-68
2022/10/25 11:14:21;;;;;;;27.02;9.32;;;24.80;99.90;;;;;;5040491;28;20052;-68
2022/10/25 11:17:36;;;;;;;24.00;7.20;;;25.40;99.90;;;;;;5049425;28;20510;-68
2022/10/25 11:21:15;;;;;;;22.15;7.88;;;26.70;99.90;;;;;;5012910;28;20041;-67
2022/10/25 11:24:19;;;;;;;22.67;6.55;;;27.50;99.90;;;;;;5033827;28;20506;-68
2022/10/25 11:27:44;;;;;;;24.05;8.05;;;30.30;99.90;;;;;;5031804;28;20045;-68
2022/10/25 11:31:04;;;;;;;18.33;6.55;;;29.80;99.90;;;;;;5047723;28;20048;-68
2022/10/25 11:34:14;;;;;;;23.73;7.03;;;29.30;99.90;;;;;;5052722;28;20044;-68
2022/10/25 11:37:30;;;;;;;21.80;7.88;;;29.20;99.90;;;;;;5052671;28;20044;-68
2022/10/25 11:40:40;;;;;;;18.83;6.72;;;26.50;99.90;;;;;;5045593;28;20060;-67
2022/10/25 11:44:16;;;;;;;17.10;6.45;;;27.90;99.90;;;;;;5050728;28;20039;-67
2022/10/25 11:47:59;;;;;;;26.30;7.20;;;28.10;99.90;;;;;;5048713;28;20040;-68
2022/10/25 11:51:06;;;;;;;23.65;6.55;;;28.10;99.90;;;;;;5037921;28;20396;-67
2022/10/25 11:54:13;;;;;;;20.35;6.60;;;30.30;99.90;;;;;;5049120;28;20063;-67
2022/10/25 11:58:07;;;;;;;27.92;6.57;;;31.90;99.70;;;;;;5053280;28;20044;-67
2022/10/25 12:01:16;;;;;;;19.48;5.97;;;33.20;97.40;;;;;;5039530;28;20044;-68
2022/10/25 12:04:41;;;;;;;18.85;6.40;;;32.50;97.80;;;;;;5047946;28;20048;-69
2022/10/25 12:07:53;;;;;;;17.35;5.65;;;33.90;97.10;;;;;;5044614;28;20041;-67
2022/10/25 12:11:04;;;;;;;24.92;5.63;;;34.70;96.00;;;;;;5046010;28;20040;-67
2022/10/25 12:14:15;;;;;;;21.65;6.18;;;34.80;95.20;;;;;;5050777;28;20060;-67
2022/10/25 12:17:29;;;;;;;23.83;6.15;;;34.60;95.20;;;;;;5046211;28;20044;-68
2022/10/25 12:20:36;;;;;;;19.10;6.68;;;34.00;95.50;;;;;;5052522;28;20052;-69
2022/10/25 12:23:45;;;;;;;25.35;5.97;;;34.30;95.30;;;;;;5045877;28;20044;-68
2022/10/25 12:26:54;;;;;;;15.05;5.05;;;35.00;95.00;;;;;;5043658;28;20040;-67
2022/10/25 12:30:06;;;;;;;18.60;6.22;;;34.60;94.80;;;;;;5045159;28;20036;-68
2022/10/25 12:33:10;;;;;;;17.60;5.97;;;33.90;94.50;;;;;;5047598;28;20039;-68
2022/10/25 12:36:38;;;;;;;18.23;6.82;;;34.60;94.30;;;;;;5042771;28;20044;-68
2022/10/25 12:39:43;;;;;;;28.60;6.75;;;33.10;95.20;;;;;;5041576;28;20044;-68
2022/10/25 12:43:13;;;;;;;19.90;5.88;;;32.60;96.10;;;;;;5046719;28;20044;-68
2022/10/25 12:46:34;;;;;;;18.07;5.77;;;33.00;95.20;;;;;;5051726;28;20104;-68
2022/10/25 12:49:38;;;;;;;20.45;5.60;;;33.10;95.40;;;;;;5031911;28;20052;-68
2022/10/25 12:53:20;;;;;;;20.00;6.07;;;29.70;97.30;;;;;;5050421;28;20044;-67
2022/10/25 12:56:45;;;;;;;15.02;6.10;;;29.40;98.70;;;;;;5050107;28;20048;-66
2022/10/25 13:00:09;;;;;;;23.25;5.90;;;30.00;97.70;;;;;;5048787;28;20048;-68
2022/10/25 13:03:44;;;;;;;18.98;6.00;;;30.50;97.80;;;;;;5047002;28;20190;-68
2022/10/25 13:06:51;;;;;;;23.25;6.47;;;31.70;97.20;;;;;;5044558;28;20041;-67
2022/10/25 13:10:05;;;;;;;17.45;5.75;;;33.10;96.30;;;;;;5051432;28;20036;-67
2022/10/25 13:13:25;;;;;;;24.05;7.03;;;33.90;95.10;;;;;;5049684;28;20490;-67
2022/10/25 13:16:31;;;;;;;21.73;6.00;;;32.90;95.00;;;;;;5048078;28;20063;-68
2022/10/25 13:19:35;;;;;;;25.45;6.18;;;30.80;96.50;;;;;;5047270;28;20055;-67
2022/10/25 13:22:40;;;;;;;25.48;5.90;;;32.60;95.50;;;;;;5044556;28;20048;-68
2022/10/25 13:25:47;;;;;;;22.08;6.70;;;30.50;97.20;;;;;;5041227;28;20051;-68
2022/10/25 13:29:22;;;;;;;25.70;6.50;;;29.40;97.80;;;;;;5046118;28;20056;-67
2022/10/25 13:32:34;;;;;;;16.20;5.32;;;31.60;96.60;;;;;;5050804;28;20048;-68
2022/10/25 13:35:38;;;;;;;20.05;6.40;;;31.70;96.50;;;;;;5046068;28;20495;-68
2022/10/25 13:38:42;;;;;;;18.42;5.90;;;32.50;95.80;;;;;;5046549;28;20395;-68
2022/10/25 13:41:47;;;;;;;16.15;5.35;;;31.40;96.10;;;;;;5048375;28;20041;-68
2022/10/25 13:45:03;;;;;;;19.80;5.82;;;32.10;95.80;;;;;;5047580;28;20056;-68
2022/10/25 13:48:17;;;;;;;16.52;5.70;;;32.70;95.20;;;;;;5050499;28;20036;-67
2022/10/25 13:51:22;;;;;;;24.15;6.03;;;33.40;94.90;;;;;;5044263;28;20036;-67
2022/10/25 13:54:52;;;;;;;26.17;5.70;;;31.20;96.50;;;;;;5048254;28;20380;-67
2022/10/25 13:57:57;;;;;;;23.10;6.13;;;31.60;95.90;;;;;;5052612;28;20043;-67
2022/10/25 14:01:16;;;;;;;15.55;5.90;;;30.90;96.90;;;;;;5049849;28;20527;-68
2022/10/25 14:04:35;;;;;;;18.65;6.03;;;29.60;98.40;;;;;;5047367;28;20503;-67
2022/10/25 14:07:39;;;;;;;23.42;6.03;;;30.20;98.10;;;;;;5049251;28;20044;-67
2022/10/25 14:10:46;;;;;;;15.10;5.70;;;30.80;97.90;;;;;;5048620;28;20056;-67
2022/10/25 14:13:54;;;;;;;19.52;6.47;;;31.10;97.40;;;;;;5051003;28;20040;-68
2022/10/25 14:17:10;;;;;;;37.13;7.70;;;30.10;97.90;;;;;;5049636;28;20617;-67
2022/10/25 14:20:30;;;;;;;19.08;6.75;;;28.10;99.90;;;;;;5050507;28;20040;-67
2022/10/25 14:23:35;;;;;;;25.85;7.03;;;28.20;99.90;;;;;;5045072;28;20047;-67
2022/10/25 14:26:49;;;;;;;22.30;6.78;;;28.50;99.90;;;;;;5047033;28;20048;-67
2022/10/25 14:30:23;;;;;;;18.20;5.68;;;27.40;99.90;;;;;;5050420;28;20036;-67
2022/10/25 14:33:27;;;;;;;16.88;6.93;;;28.10;99.90;;;;;;5042859;28;20044;-67
2022/10/25 14:36:35;;;;;;;25.65;6.05;;;28.50;99.60;;;;;;5050160;28;20482;-67
2022/10/25 14:39:51;;;;;;;25.65;6.22;;;28.50;99.80;;;;;;5044694;28;20048;-67
2022/10/25 14:43:10;;;;;;;22.92;6.30;;;29.00;99.90;;;;;;5048272;28;20048;-67
2022/10/25 14:46:17;;;;;;;22.40;6.75;;;29.20;99.90;;;;;;5049241;28;20235;-67
2022/10/25 14:49:22;;;;;;;28.88;6.43;;;28.70;99.90;;;;;;5043234;28;20040;-67
2022/10/25 14:52:29;;;;;;;28.27;7.22;;;28.20;99.90;;;;;;5044117;28;20044;-67
2022/10/25 14:55:33;;;;;;;25.38;7.00;;;27.70;99.90;;;;;;5049612;28;20032;-67
2022/10/25 14:58:42;;;;;;;33.05;7.40;;;26.30;99.90;;;;;;5045098;28;20048;-67
2022/10/25 15:01:59;;;;;;;21.75;7.22;;;26.50;99.90;;;;;;5047709;28;20036;-67
2022/10/25 15:05:04;;;;;;;23.73;6.68;;;26.10;99.90;;;;;;5050128;28;20040;-67
2022/10/25 15:08:21;;;;;;;22.73;7.05;;;25.80;99.90;;;;;;5050728;28;20044;-67
2022/10/25 15:11:26;;;;;;;21.17;7.82;;;25.60;99.90;;;;;;5042661;28;20048;-67
2022/10/25 15:14:30;;;;;;;24.70;7.68;;;25.80;99.90;;;;;;5044506;28;20036;-67
2022/10/25 15:17:35;;;;;;;28.42;8.02;;;25.70;99.90;;;;;;5038425;28;20040;-67
2022/10/25 15:20:39;;;;;;;27.38;7.13;;;25.50;99.90;;;;;;5042137;28;20037;-67
2022/10/25 15:24:11;;;;;;;29.77;7.72;;;25.30;99.90;;;;;;5048389;28;20044;-67
2022/10/25 15:27:34;;;;;;;18.35;6.88;;;25.00;99.90;;;;;;5047654;28;20376;-67
2022/10/25 15:30:41;;;;;;;27.08;8.43;;;24.60;99.90;;;;;;5050301;28;20052;-67
2022/10/25 15:33:47;;;;;;;25.33;7.68;;;24.20;99.90;;;;;;5041653;28;20044;-68
2022/10/25 15:36:51;;;;;;;29.35;7.55;;;23.90;99.90;;;;;;5050810;28;20475;-68
2022/10/25 15:39:55;;;;;;;21.75;7.95;;;23.70;99.90;;;;;;5050721;28;20063;-67
2022/10/25 15:42:59;;;;;;;31.13;8.38;;;23.40;99.90;;;;;;5050514;28;20048;-68
2022/10/25 15:46:04;;;;;;;25.65;8.35;;;23.10;99.90;;;;;;5045657;28;20582;-68
2022/10/25 15:49:11;;;;;;;21.70;8.73;;;22.80;99.90;;;;;;5049623;28;20048;-68
2022/10/25 15:52:15;;;;;;;46.85;15.48;;;22.80;99.90;;;;;;5049837;28;20036;-68
2022/10/25 15:55:26;;;;;;;33.17;9.88;;;22.70;99.90;;;;;;5042092;28;20380;-68
2022/10/25 15:58:29;;;;;;;37.65;10.70;;;22.60;99.90;;;;;;5050239;28;20036;-67
2022/10/25 16:01:34;;;;;;;35.33;11.57;;;22.50;99.90;;;;;;5045372;28;20368;-67
2022/10/25 16:04:37;;;;;;;32.47;10.32;;;22.40;99.90;;;;;;5044320;28;20495;-67
2022/10/25 16:07:41;;;;;;;29.08;10.70;;;22.30;99.90;;;;;;5044187;28;20112;-67